الصفحة الرئيسية
METAR-TAF:

METAR-TAF

مطار :

مطار سولت لايك سيتي الدولي

سولت ليك سيتي, يوتا, الولايات المتحدة

دائرة عرض: 40-46-41N, خط طول: 111-58-10W, ارتفاع: 1288 متر

مراقبة الطقس الحالي

تاريخ ووقت الإصدار 48 دقيقة قبل الساعة 21:54UTC
ريح 7 عقدة من الشمال/الشمال الغربي
درجة الحرارة 27°درجة مئوية
الرطوبة 20%
ضغط 1019 hPa
الرؤية: 16.1 كم
غيوم قليلة على ارتفاع 9000 قدم

METAR: KSLC 242154Z 33007KT 10SM FEW090 27/02 A3008 RMK AO2 SLP136 T02720017

زمن: 16:42 (22:42 UTC)

توقعات

تاريخ ووقت الإصدار 1ساعة و 36 دقيقة قبل الساعة 21:06UTC
التوقعات صالحة من24 الساعة 21 UTC إلى 25 الساعة 24 UTC
ريح 10 عقدة من الشمال/الشمال الغربي
الرؤية: 10 كم
غيوم قليلة على ارتفاع 10000 قدم
من 25 الساعة 0500 UTC
ريح 7 عقدة من الجنوب/الجنوب الشرقي
الرؤية: 10 كم
سماء صافية
من 25 الساعة 1900 UTC
ريح 8 عقدة من الشمال/الشمال الغربي
الرؤية: 10 كم
غيوم قليلة على ارتفاع 10000 قدم

TAF: KSLC 242106Z 2421/2524 33010KT P6SM FEW100 FM250500 16007KT P6SM SKC FM251900 33008KT P6SM FEW100

أرصاد الطقس والتوقعات من أكثر من 4000 مطار (تقارير الطقس للمطار METAR والتنبؤ بالطقس بالمطارTAF).

المحطات المتاحة هي النقط الصفراء والحمراء على الخريطة.

حرك المؤشر فوق النقطة لمعرفة اسم المحطة.

ثم انقر لمعرفة أرصاد وتوقعات الطقس.

لتغيير الخارطة: اضغط على الأزرار الخضراء مع رمز الصليب الأسود للتكبير. على الزر الأخضر مع شرطة للتصغير، أو على الأسهم الخضراء للخرائط المجاورة.


METAR-TAF: